Time;durP1;ratioP1;P1;durP2;ratioP2;P2;SDS_P1;SDS_P2;PMS_P1;PMS_P2;Temp;Humidity;BMP_temperature;BMP_pressure;BME280_temperature;BME280_humidity;BME280_pressure;Samples;Min_cycle;Max_cycle;Signal;HPM_P1;HPM_P2
2023/08/08 00:00:25;;;;;;;5.07;1.70;;;14.60;75.80;;;;;;5103455;28;20032;-64
2023/08/08 00:02:51;;;;;;;5.28;2.08;;;14.60;76.20;;;;;;5108420;28;20437;-65
2023/08/08 00:05:16;;;;;;;3.97;1.60;;;14.60;76.60;;;;;;5095642;28;20028;-65
2023/08/08 00:07:42;;;;;;;3.47;1.88;;;14.60;76.00;;;;;;5089679;28;20024;-65
2023/08/08 00:10:08;;;;;;;2.40;1.67;;;14.60;75.90;;;;;;5103060;28;20024;-64
2023/08/08 00:12:33;;;;;;;4.97;1.77;;;14.60;75.80;;;;;;5088142;28;20028;-64
2023/08/08 00:14:59;;;;;;;3.70;1.80;;;14.60;75.30;;;;;;5086888;28;20035;-63
2023/08/08 00:17:25;;;;;;;4.15;1.67;;;14.50;75.00;;;;;;5091746;28;20570;-64
2023/08/08 00:19:50;;;;;;;5.30;1.65;;;14.50;75.20;;;;;;5101667;28;20140;-64
2023/08/08 00:22:16;;;;;;;2.88;1.70;;;14.40;75.30;;;;;;5089385;28;20024;-63
2023/08/08 00:24:41;;;;;;;4.85;1.58;;;14.40;75.10;;;;;;5106797;28;20487;-63
2023/08/08 00:27:07;;;;;;;6.25;1.88;;;14.30;75.00;;;;;;5109293;28;20325;-64
2023/08/08 00:29:32;;;;;;;4.45;1.80;;;14.20;75.20;;;;;;5093609;28;20054;-63
2023/08/08 00:31:58;;;;;;;3.33;1.60;;;14.10;75.60;;;;;;5088025;28;20073;-63
2023/08/08 00:34:23;;;;;;;3.22;1.30;;;14.00;76.10;;;;;;5091116;28;20032;-64
2023/08/08 00:36:49;;;;;;;3.88;1.70;;;13.90;76.20;;;;;;5089717;28;20029;-64
2023/08/08 00:39:14;;;;;;;5.72;1.90;;;13.90;77.20;;;;;;5078945;28;20443;-63
2023/08/08 00:41:40;;;;;;;8.80;1.90;;;13.70;77.40;;;;;;5079902;28;20120;-64
2023/08/08 00:44:05;;;;;;;4.72;1.90;;;13.70;78.40;;;;;;5103812;28;20103;-63
2023/08/08 00:46:31;;;;;;;5.13;1.60;;;13.60;79.60;;;;;;5074971;28;20108;-63
2023/08/08 00:48:57;;;;;;;6.53;2.05;;;13.50;79.00;;;;;;5105221;28;20507;-63
2023/08/08 00:51:24;;;;;;;2.58;1.50;;;13.50;80.40;;;;;;5088915;28;20472;-64
2023/08/08 00:53:50;;;;;;;4.47;1.90;;;13.40;81.80;;;;;;5108540;28;20028;-64
2023/08/08 00:56:17;;;;;;;5.22;1.92;;;13.40;81.80;;;;;;5107035;28;20032;-64
2023/08/08 00:58:45;;;;;;;5.82;2.00;;;13.30;81.30;;;;;;5089000;28;20028;-64
2023/08/08 01:01:11;;;;;;;5.05;2.08;;;13.30;82.20;;;;;;5086025;28;20032;-64
2023/08/08 01:03:37;;;;;;;4.70;1.65;;;13.30;83.70;;;;;;5106911;28;20510;-64
2023/08/08 01:06:10;;;;;;;5.40;1.80;;;13.20;84.60;;;;;;5087273;28;20036;-64
2023/08/08 01:08:45;;;;;;;7.63;2.05;;;13.20;84.50;;;;;;5068583;28;20028;-64
2023/08/08 01:11:11;;;;;;;4.80;1.80;;;13.10;85.90;;;;;;5085841;28;20381;-64
2023/08/08 01:13:38;;;;;;;2.70;1.45;;;13.10;85.30;;;;;;5106873;28;20555;-64
2023/08/08 01:16:04;;;;;;;2.67;1.60;;;13.00;85.70;;;;;;5084241;28;20043;-64
2023/08/08 01:18:32;;;;;;;4.20;2.42;;;13.00;86.60;;;;;;5112126;28;20035;-64
2023/08/08 01:20:58;;;;;;;4.78;2.28;;;12.90;86.80;;;;;;5090924;28;20043;-63
2023/08/08 01:23:43;;;;;;;5.45;2.03;;;13.00;86.80;;;;;;5110725;28;20042;-64
2023/08/08 01:26:09;;;;;;;5.22;1.55;;;13.00;88.50;;;;;;5089391;28;20068;-64
2023/08/08 01:28:34;;;;;;;5.32;1.85;;;13.00;87.60;;;;;;5112090;28;20122;-64
2023/08/08 01:31:00;;;;;;;4.18;1.80;;;13.00;88.20;;;;;;5090630;28;20048;-64
2023/08/08 01:33:26;;;;;;;3.17;1.88;;;13.00;87.20;;;;;;5110519;28;20019;-63
2023/08/08 01:36:00;;;;;;;3.90;1.50;;;13.10;87.20;;;;;;5090876;28;20038;-63
2023/08/08 01:38:25;;;;;;;4.80;1.60;;;13.10;88.00;;;;;;5092027;28;20111;-63
2023/08/08 01:40:51;;;;;;;3.33;1.77;;;13.00;86.50;;;;;;5092998;28;20103;-63
2023/08/08 01:43:18;;;;;;;3.85;1.83;;;13.00;86.60;;;;;;5111436;28;20066;-63
2023/08/08 01:45:44;;;;;;;5.70;1.90;;;12.90;87.80;;;;;;5090654;28;20528;-64
2023/08/08 01:48:10;;;;;;;6.03;1.63;;;12.90;87.30;;;;;;5111631;28;20099;-63
2023/08/08 01:50:36;;;;;;;5.68;1.75;;;12.90;88.20;;;;;;5089033;28;20028;-63
2023/08/08 01:53:02;;;;;;;3.55;1.80;;;12.80;87.50;;;;;;5111567;28;20502;-63
2023/08/08 01:55:28;;;;;;;5.70;1.63;;;12.80;87.80;;;;;;5090385;28;20032;-63
2023/08/08 01:57:53;;;;;;;3.92;1.30;;;12.90;87.50;;;;;;5111341;28;20655;-63
2023/08/08 02:00:19;;;;;;;3.53;1.60;;;12.90;86.80;;;;;;5089052;28;20271;-63
2023/08/08 02:02:45;;;;;;;3.63;1.90;;;13.00;87.90;;;;;;5111325;28;20023;-63
2023/08/08 02:05:10;;;;;;;4.13;1.83;;;13.00;86.60;;;;;;5101339;28;20028;-64
2023/08/08 02:07:36;;;;;;;5.00;1.50;;;13.00;86.40;;;;;;5091848;28;20452;-64
2023/08/08 02:10:01;;;;;;;2.10;1.33;;;13.00;85.90;;;;;;5109172;28;20031;-63
2023/08/08 02:12:28;;;;;;;3.40;1.55;;;13.00;85.50;;;;;;5091817;28;20546;-64
2023/08/08 02:14:54;;;;;;;3.47;1.45;;;13.10;84.90;;;;;;5094917;28;20183;-53
2023/08/08 02:17:20;;;;;;;3.40;1.35;;;13.10;84.90;;;;;;5111092;28;20571;-54
2023/08/08 02:19:46;;;;;;;5.60;1.88;;;13.10;84.60;;;;;;5097364;28;20116;-54
2023/08/08 02:22:11;;;;;;;3.67;1.42;;;13.00;84.00;;;;;;5111629;28;20065;-52
2023/08/08 02:24:37;;;;;;;4.30;1.60;;;13.00;83.70;;;;;;5096224;28;20087;-62
2023/08/08 02:27:02;;;;;;;3.90;1.33;;;13.10;83.60;;;;;;5111117;28;20491;-61
2023/08/08 02:29:28;;;;;;;4.30;1.30;;;13.10;83.30;;;;;;5094484;28;20023;-61
2023/08/08 02:31:53;;;;;;;2.65;1.25;;;13.10;82.90;;;;;;5111390;28;20039;-62
2023/08/08 02:34:19;;;;;;;4.70;1.40;;;13.00;82.80;;;;;;5093452;28;20103;-62
2023/08/08 02:36:44;;;;;;;5.57;1.52;;;13.10;82.70;;;;;;5111393;28;20038;-55
2023/08/08 02:39:10;;;;;;;2.97;1.60;;;13.10;82.40;;;;;;5092066;28;20384;-57
2023/08/08 02:41:35;;;;;;;1.85;1.20;;;13.10;82.20;;;;;;5111479;28;20019;-54
2023/08/08 02:44:01;;;;;;;1.65;1.33;;;13.10;82.10;;;;;;5090771;28;20480;-57
2023/08/08 02:46:26;;;;;;;3.03;1.40;;;13.10;82.20;;;;;;5111026;28;20140;-57
2023/08/08 02:48:52;;;;;;;2.17;1.35;;;13.10;82.00;;;;;;5089295;28;20036;-55
2023/08/08 02:51:17;;;;;;;5.75;1.40;;;13.20;81.60;;;;;;5110858;28;20106;-56
2023/08/08 02:53:43;;;;;;;2.42;1.35;;;13.10;82.10;;;;;;5091019;28;20040;-58
2023/08/08 02:56:08;;;;;;;3.90;1.42;;;13.20;81.60;;;;;;5089062;28;20024;-57
2023/08/08 02:58:34;;;;;;;2.30;1.38;;;13.20;81.70;;;;;;5110104;28;20032;-58
2023/08/08 03:00:59;;;;;;;2.28;1.52;;;13.20;81.50;;;;;;5089033;28;20035;-57
2023/08/08 03:03:25;;;;;;;4.03;1.38;;;13.20;82.10;;;;;;5109916;28;20032;-57
2023/08/08 03:05:50;;;;;;;1.85;1.50;;;13.10;82.00;;;;;;5087598;28;20384;-57
2023/08/08 03:08:15;;;;;;;2.83;1.35;;;13.10;82.80;;;;;;5109919;28;20050;-55
2023/08/08 03:10:41;;;;;;;2.28;1.30;;;13.00;82.70;;;;;;5088951;28;20111;-56
2023/08/08 03:13:07;;;;;;;7.40;1.75;;;12.90;83.70;;;;;;5109848;28;20419;-57
2023/08/08 03:15:32;;;;;;;3.53;1.83;;;12.90;84.50;;;;;;5088392;28;20417;-57
2023/08/08 03:17:58;;;;;;;4.13;1.58;;;12.80;84.80;;;;;;5109572;28;20039;-55
2023/08/08 03:20:23;;;;;;;2.00;1.58;;;12.70;85.70;;;;;;5088892;28;20028;-56
2023/08/08 03:22:49;;;;;;;2.05;1.40;;;12.70;86.40;;;;;;5110042;28;20035;-57
2023/08/08 03:25:14;;;;;;;3.08;1.08;;;12.60;87.70;;;;;;5088805;28;20035;-55
2023/08/08 03:27:40;;;;;;;2.75;1.77;;;12.60;87.70;;;;;;5109427;28;20038;-57
2023/08/08 03:30:06;;;;;;;3.10;1.40;;;12.60;89.80;;;;;;5098652;28;20051;-57
2023/08/08 03:32:32;;;;;;;4.40;1.80;;;12.60;90.20;;;;;;5090062;28;20081;-58
2023/08/08 03:34:57;;;;;;;4.43;1.77;;;12.60;90.20;;;;;;5107459;28;20027;-57
2023/08/08 03:37:23;;;;;;;3.80;1.60;;;12.60;90.40;;;;;;5090536;28;20039;-57
2023/08/08 03:39:48;;;;;;;2.47;1.58;;;12.50;90.70;;;;;;5105312;28;20035;-57
2023/08/08 03:42:14;;;;;;;3.40;1.45;;;12.50;90.50;;;;;;5090099;28;20036;-56
2023/08/08 03:44:40;;;;;;;2.72;1.65;;;12.40;90.90;;;;;;5107514;28;20027;-56
2023/08/08 03:47:06;;;;;;;5.03;1.58;;;12.40;92.00;;;;;;5109963;27;20030;-57
2023/08/08 03:49:32;;;;;;;3.10;1.52;;;12.40;91.60;;;;;;5093717;28;20066;-57
2023/08/08 03:51:57;;;;;;;2.28;1.55;;;12.30;92.20;;;;;;5109935;28;20070;-57
2023/08/08 03:54:22;;;;;;;4.47;1.70;;;12.30;92.30;;;;;;5092349;28;20034;-57
2023/08/08 03:56:48;;;;;;;3.00;1.98;;;12.30;92.50;;;;;;5109879;28;20045;-57
2023/08/08 03:59:13;;;;;;;3.20;1.40;;;12.30;92.60;;;;;;5090891;28;20031;-56
2023/08/08 04:01:39;;;;;;;2.90;1.50;;;12.30;93.10;;;;;;5108327;28;20019;-58
2023/08/08 04:04:05;;;;;;;3.15;1.95;;;12.30;93.30;;;;;;5089567;28;20035;-57
2023/08/08 04:06:30;;;;;;;2.78;1.50;;;12.30;93.40;;;;;;5109890;28;20039;-57
2023/08/08 04:08:56;;;;;;;7.90;2.30;;;12.40;93.40;;;;;;5088401;28;20492;-57
2023/08/08 04:11:21;;;;;;;2.42;1.73;;;12.40;93.40;;;;;;5109489;28;20027;-56
2023/08/08 04:13:47;;;;;;;3.70;1.95;;;12.50;94.10;;;;;;5091463;28;20032;-56
2023/08/08 04:16:12;;;;;;;3.53;1.83;;;12.60;93.80;;;;;;5083782;28;20103;-56
2023/08/08 04:18:38;;;;;;;4.30;2.05;;;12.70;93.90;;;;;;5107217;28;20038;-55
2023/08/08 04:21:03;;;;;;;4.38;1.83;;;12.80;93.50;;;;;;5086366;28;20024;-58
2023/08/08 04:23:29;;;;;;;3.72;1.50;;;12.90;93.20;;;;;;5108714;28;20039;-57
2023/08/08 04:25:55;;;;;;;5.22;2.30;;;12.90;92.70;;;;;;5084733;28;20037;-59
2023/08/08 04:28:20;;;;;;;2.15;1.90;;;13.00;92.70;;;;;;5068519;28;20072;-57
2023/08/08 04:30:46;;;;;;;5.65;2.03;;;13.00;92.70;;;;;;5096581;28;20048;-58
2023/08/08 04:33:11;;;;;;;1.67;1.42;;;13.10;92.50;;;;;;5105455;28;20032;-57
2023/08/08 04:35:37;;;;;;;2.33;1.73;;;13.10;92.40;;;;;;5089214;28;20059;-58
2023/08/08 04:38:03;;;;;;;3.75;1.70;;;13.20;92.20;;;;;;5087985;28;20395;-56
2023/08/08 04:40:28;;;;;;;4.05;1.90;;;13.30;91.90;;;;;;5108397;28;20085;-57
2023/08/08 04:42:54;;;;;;;2.65;2.13;;;13.30;91.90;;;;;;5087659;28;20032;-58
2023/08/08 04:45:20;;;;;;;5.63;2.20;;;13.40;91.70;;;;;;5108191;28;20506;-57
2023/08/08 04:47:46;;;;;;;3.72;1.52;;;13.60;91.50;;;;;;5085902;28;20028;-57
2023/08/08 04:50:12;;;;;;;3.47;1.55;;;13.80;91.00;;;;;;5110331;28;20024;-55
2023/08/08 04:52:37;;;;;;;7.00;2.13;;;14.00;90.60;;;;;;5091512;28;20051;-57
2023/08/08 04:55:03;;;;;;;6.10;1.80;;;14.30;90.00;;;;;;5112388;28;20487;-57
2023/08/08 04:57:29;;;;;;;4.07;1.88;;;14.50;88.20;;;;;;5091502;28;20032;-58
2023/08/08 04:59:54;;;;;;;2.50;1.20;;;14.80;87.20;;;;;;5111090;28;20095;-57
2023/08/08 05:02:19;;;;;;;2.17;1.30;;;15.10;85.60;;;;;;5091337;28;20088;-57
2023/08/08 05:04:45;;;;;;;1.85;1.25;;;15.10;84.20;;;;;;5110924;28;20523;-57
2023/08/08 05:07:10;;;;;;;4.10;1.40;;;15.20;83.70;;;;;;5091337;28;20059;-58
2023/08/08 05:09:36;;;;;;;2.17;1.35;;;15.10;83.50;;;;;;5112304;28;20034;-58
2023/08/08 05:12:02;;;;;;;2.70;1.75;;;15.20;84.00;;;;;;5101063;28;20047;-57
2023/08/08 05:14:27;;;;;;;1.95;1.30;;;15.10;83.80;;;;;;5097852;28;20038;-58
2023/08/08 05:16:53;;;;;;;2.22;1.40;;;15.20;83.40;;;;;;5100009;28;20438;-57
2023/08/08 05:19:18;;;;;;;2.70;1.50;;;15.20;83.20;;;;;;5092994;28;20027;-57
2023/08/08 05:21:44;;;;;;;1.92;1.20;;;15.30;83.20;;;;;;5110082;28;20110;-57
2023/08/08 05:24:09;;;;;;;5.45;1.88;;;15.50;82.30;;;;;;5112549;28;20020;-58
2023/08/08 05:26:35;;;;;;;3.65;1.90;;;15.70;81.40;;;;;;5097249;28;20070;-55
2023/08/08 05:29:00;;;;;;;2.00;1.35;;;15.70;81.00;;;;;;5112441;28;20031;-58
2023/08/08 05:31:26;;;;;;;2.35;1.38;;;15.70;80.70;;;;;;5095651;28;20099;-57
2023/08/08 05:33:51;;;;;;;5.03;1.52;;;15.60;80.30;;;;;;5112688;28;20529;-58
2023/08/08 05:36:17;;;;;;;2.63;1.30;;;15.40;81.20;;;;;;5094523;28;20103;-56
2023/08/08 05:38:42;;;;;;;2.50;1.60;;;15.40;81.50;;;;;;5112567;28;20066;-57
2023/08/08 05:41:08;;;;;;;3.72;1.58;;;15.40;81.70;;;;;;5093088;28;20092;-57
2023/08/08 05:43:34;;;;;;;2.55;1.30;;;15.30;81.70;;;;;;5110983;28;20418;-57
2023/08/08 05:45:59;;;;;;;2.85;1.77;;;15.30;81.50;;;;;;5092120;28;20028;-59
2023/08/08 05:48:25;;;;;;;3.90;1.50;;;15.30;82.10;;;;;;5112116;28;20092;-57
2023/08/08 05:50:50;;;;;;;3.95;1.50;;;15.30;82.10;;;;;;5090420;28;20046;-57
2023/08/08 05:53:16;;;;;;;2.47;1.67;;;15.30;82.10;;;;;;5112168;28;20027;-57
2023/08/08 05:55:44;;;;;;;2.08;1.42;;;15.30;82.30;;;;;;5092228;28;20028;-57
2023/08/08 05:58:10;;;;;;;4.97;1.70;;;15.60;82.10;;;;;;5090033;28;20073;-56
2023/08/08 06:00:35;;;;;;;3.38;1.60;;;15.80;81.10;;;;;;5111250;28;20036;-57
2023/08/08 06:03:01;;;;;;;3.47;1.40;;;15.90;80.40;;;;;;5097507;28;20532;-57
2023/08/08 06:05:28;;;;;;;4.90;1.20;;;16.10;79.60;;;;;;5092226;28;20059;-56
2023/08/08 06:07:54;;;;;;;3.50;1.45;;;16.30;79.00;;;;;;5100736;28;20032;-57
2023/08/08 06:10:20;;;;;;;3.20;1.73;;;16.50;77.90;;;;;;5111511;28;20023;-58
2023/08/08 06:12:46;;;;;;;2.28;1.45;;;16.80;77.20;;;;;;5090210;28;20032;-58
2023/08/08 06:15:11;;;;;;;4.25;1.48;;;17.00;77.10;;;;;;5100024;28;20040;-57
2023/08/08 06:17:37;;;;;;;4.38;1.40;;;17.20;75.30;;;;;;5090270;28;20058;-59
2023/08/08 06:20:02;;;;;;;2.78;1.65;;;17.20;75.20;;;;;;5091651;28;20028;-58
2023/08/08 06:22:28;;;;;;;3.10;1.50;;;17.00;74.80;;;;;;5103988;28;20387;-58
2023/08/08 06:24:53;;;;;;;2.90;1.48;;;16.90;75.80;;;;;;5090247;28;20027;-59
2023/08/08 06:27:19;;;;;;;2.47;1.38;;;16.80;76.20;;;;;;5105264;28;20103;-58
2023/08/08 06:29:44;;;;;;;1.88;1.40;;;16.60;75.80;;;;;;5093384;28;20093;-58
2023/08/08 06:32:10;;;;;;;3.80;1.50;;;16.50;77.10;;;;;;5106838;28;20338;-58
2023/08/08 06:34:35;;;;;;;4.97;1.52;;;16.50;77.30;;;;;;5091268;28;20099;-58
2023/08/08 06:37:01;;;;;;;2.92;1.58;;;16.40;76.90;;;;;;5107471;28;20469;-58
2023/08/08 06:39:26;;;;;;;6.35;1.60;;;16.40;77.40;;;;;;5091039;28;20028;-58
2023/08/08 06:41:52;;;;;;;2.83;1.58;;;16.40;75.70;;;;;;5108524;28;20016;-58
2023/08/08 06:44:19;;;;;;;2.10;1.40;;;16.60;76.50;;;;;;5091033;28;20511;-58
2023/08/08 06:46:44;;;;;;;2.47;1.45;;;16.80;76.60;;;;;;5110743;28;20089;-58
2023/08/08 06:49:10;;;;;;;2.63;1.30;;;17.00;76.20;;;;;;5089528;28;20403;-57
2023/08/08 06:51:36;;;;;;;4.57;1.63;;;17.10;76.10;;;;;;5110403;28;20448;-57
2023/08/08 06:54:01;;;;;;;5.18;1.50;;;17.10;75.70;;;;;;5089447;28;20045;-57
2023/08/08 06:56:27;;;;;;;2.05;1.25;;;17.60;72.90;;;;;;5110633;28;20539;-58
2023/08/08 06:58:53;;;;;;;2.67;1.30;;;17.60;72.70;;;;;;5089486;28;20047;-57
2023/08/08 07:01:19;;;;;;;3.40;1.20;;;17.70;73.30;;;;;;5110439;28;20045;-57
2023/08/08 07:03:45;;;;;;;1.70;1.30;;;17.80;72.00;;;;;;5089312;28;20032;-57
2023/08/08 07:06:11;;;;;;;1.98;1.05;;;17.80;73.20;;;;;;5110372;28;20027;-57
2023/08/08 07:08:39;;;;;;;3.10;1.65;;;17.70;72.30;;;;;;5089281;28;20035;-57
2023/08/08 07:11:06;;;;;;;3.40;1.85;;;17.60;72.90;;;;;;5110115;28;20114;-57
2023/08/08 07:13:32;;;;;;;3.20;1.48;;;17.50;73.50;;;;;;5086512;28;20024;-57
2023/08/08 07:15:57;;;;;;;5.97;1.90;;;17.40;73.50;;;;;;5105213;28;20507;-57
2023/08/08 07:18:22;;;;;;;4.13;1.63;;;17.20;73.80;;;;;;5089049;28;20496;-58
2023/08/08 07:20:49;;;;;;;4.72;1.15;;;17.10;74.20;;;;;;5109895;28;20081;-57
2023/08/08 07:23:15;;;;;;;1.98;1.38;;;17.00;74.80;;;;;;5088762;28;20430;-57
2023/08/08 07:25:40;;;;;;;2.83;1.30;;;17.10;74.90;;;;;;5109892;28;20487;-58
2023/08/08 07:28:06;;;;;;;3.38;1.63;;;17.10;74.20;;;;;;5088748;28;20032;-57
2023/08/08 07:30:31;;;;;;;4.85;1.35;;;17.20;74.50;;;;;;5100790;28;20535;-58
2023/08/08 07:32:57;;;;;;;2.35;1.52;;;17.30;74.10;;;;;;5098358;28;20066;-58
2023/08/08 07:35:22;;;;;;;1.88;1.30;;;17.90;74.10;;;;;;5109558;28;20084;-58
2023/08/08 07:37:47;;;;;;;2.72;1.50;;;19.10;70.40;;;;;;5088671;28;20487;-56
2023/08/08 07:40:15;;;;;;;2.15;1.63;;;19.70;68.20;;;;;;5109552;28;20059;-56
2023/08/08 07:42:40;;;;;;;2.97;1.65;;;19.80;65.00;;;;;;5088345;28;20070;-58
2023/08/08 07:45:06;;;;;;;3.42;1.48;;;19.70;66.70;;;;;;5089988;28;20543;-59
2023/08/08 07:47:31;;;;;;;2.45;1.60;;;19.90;66.20;;;;;;5101794;28;20020;-58
2023/08/08 07:49:57;;;;;;;3.65;1.85;;;20.00;65.60;;;;;;5089754;28;20032;-57
2023/08/08 07:52:23;;;;;;;3.20;1.63;;;20.20;65.40;;;;;;5102686;28;20444;-57
2023/08/08 07:54:49;;;;;;;4.30;1.33;;;20.30;64.40;;;;;;5089557;28;20089;-58
2023/08/08 07:57:14;;;;;;;3.78;1.13;;;20.10;62.80;;;;;;5103982;28;20098;-57
2023/08/08 07:59:40;;;;;;;3.88;1.55;;;19.80;62.10;;;;;;5089634;28;20523;-57
2023/08/08 08:02:05;;;;;;;3.08;1.50;;;19.80;62.60;;;;;;5105098;28;20034;-56
2023/08/08 08:04:31;;;;;;;2.40;1.30;;;19.90;63.70;;;;;;5089622;28;20426;-57
2023/08/08 08:06:56;;;;;;;1.95;1.33;;;20.00;63.10;;;;;;5106289;28;20020;-57
2023/08/08 08:09:22;;;;;;;2.67;1.50;;;20.40;63.10;;;;;;5089570;28;20103;-57
2023/08/08 08:11:47;;;;;;;2.08;1.30;;;20.70;62.30;;;;;;5108864;28;20036;-58
2023/08/08 08:14:13;;;;;;;2.63;1.27;;;20.70;60.20;;;;;;5090307;28;20260;-57
2023/08/08 08:16:39;;;;;;;4.70;1.58;;;20.50;59.10;;;;;;5109691;28;20031;-56
2023/08/08 08:19:04;;;;;;;1.83;1.42;;;20.60;58.50;;;;;;5087995;28;20093;-58
2023/08/08 08:21:30;;;;;;;4.38;1.65;;;20.70;59.70;;;;;;5108910;28;20103;-57
2023/08/08 08:23:55;;;;;;;1.80;1.10;;;20.70;59.80;;;;;;5087779;28;20036;-55
2023/08/08 08:26:21;;;;;;;2.97;1.45;;;20.70;59.90;;;;;;5108716;28;20040;-58
2023/08/08 08:28:46;;;;;;;1.83;1.42;;;20.40;59.70;;;;;;5087847;28;20340;-57
2023/08/08 08:31:12;;;;;;;4.60;1.40;;;20.50;58.60;;;;;;5108346;28;20044;-55
2023/08/08 08:33:37;;;;;;;2.30;1.08;;;20.30;59.70;;;;;;5087757;28;20054;-58
2023/08/08 08:36:02;;;;;;;2.22;1.30;;;20.50;60.00;;;;;;5108652;28;20038;-57
2023/08/08 08:38:28;;;;;;;1.65;1.20;;;20.60;59.30;;;;;;5087768;28;20097;-62
2023/08/08 08:40:56;;;;;;;4.10;1.60;;;20.90;59.30;;;;;;5108701;28;20039;-63
2023/08/08 08:43:22;;;;;;;1.95;1.33;;;21.40;57.60;;;;;;5086060;28;20609;-62
2023/08/08 08:45:52;;;;;;;2.13;1.20;;;21.70;57.10;;;;;;5108563;28;20074;-62
2023/08/08 08:48:19;;;;;;;1.77;1.20;;;22.20;56.90;;;;;;5079221;28;20035;-62
2023/08/08 08:50:47;;;;;;;3.13;1.48;;;22.50;54.10;;;;;;5108647;28;20047;-62
2023/08/08 08:53:14;;;;;;;2.58;1.38;;;22.60;55.50;;;;;;5087093;28;20028;-61
2023/08/08 08:55:40;;;;;;;3.65;1.17;;;22.40;53.80;;;;;;5108631;28;20028;-61
2023/08/08 08:58:06;;;;;;;2.95;1.17;;;22.50;52.10;;;;;;5087301;28;20024;-61
2023/08/08 09:00:33;;;;;;;2.17;1.23;;;22.20;53.80;;;;;;5108353;28;20030;-62
2023/08/08 09:02:59;;;;;;;2.95;1.20;;;21.90;52.70;;;;;;5087001;28;20051;-61
2023/08/08 09:05:26;;;;;;;1.98;1.10;;;22.00;53.80;;;;;;5108411;28;20747;-61
2023/08/08 09:07:51;;;;;;;2.78;1.20;;;22.20;52.10;;;;;;5087334;28;20108;-62
2023/08/08 09:10:18;;;;;;;2.08;1.30;;;22.10;50.10;;;;;;5108338;28;20759;-61
2023/08/08 09:12:44;;;;;;;2.97;1.17;;;22.00;52.00;;;;;;5087126;28;20078;-62
2023/08/08 09:15:11;;;;;;;1.92;1.48;;;21.90;51.30;;;;;;5099332;28;20381;-62
2023/08/08 09:17:41;;;;;;;2.13;0.88;;;22.00;50.80;;;;;;5092085;28;20448;-61
2023/08/08 09:20:07;;;;;;;2.50;1.10;;;21.90;51.00;;;;;;5109054;28;20106;-61
2023/08/08 09:22:33;;;;;;;2.20;1.20;;;21.80;51.20;;;;;;5087048;28;20028;-61
2023/08/08 09:24:59;;;;;;;2.47;0.90;;;22.00;51.20;;;;;;5088650;28;20039;-61
2023/08/08 09:27:24;;;;;;;1.42;1.10;;;22.20;49.70;;;;;;5101509;28;20043;-61
2023/08/08 09:29:50;;;;;;;2.45;1.20;;;22.20;50.50;;;;;;5091010;28;20039;-62
2023/08/08 09:32:17;;;;;;;2.78;0.90;;;22.20;49.90;;;;;;5101711;28;20051;-62
2023/08/08 09:34:44;;;;;;;3.17;0.98;;;22.10;50.20;;;;;;5084913;28;20115;-62
2023/08/08 09:37:10;;;;;;;2.50;1.30;;;21.90;50.00;;;;;;5100502;28;20028;-62
2023/08/08 09:39:36;;;;;;;2.58;1.30;;;21.90;50.00;;;;;;5083161;28;20043;-62
2023/08/08 09:42:04;;;;;;;2.28;1.20;;;21.90;49.40;;;;;;5108156;28;20519;-62
2023/08/08 09:44:30;;;;;;;1.55;1.20;;;21.90;48.40;;;;;;5089157;28;20035;-63
2023/08/08 09:46:56;;;;;;;2.58;1.05;;;22.00;49.00;;;;;;5097226;28;20095;-63
2023/08/08 09:49:22;;;;;;;3.85;1.33;;;21.80;49.00;;;;;;5092952;28;20488;-62
2023/08/08 09:51:49;;;;;;;1.55;1.00;;;21.50;48.90;;;;;;5086906;28;20054;-62
2023/08/08 09:54:15;;;;;;;3.22;1.15;;;21.50;49.40;;;;;;5092529;28;20036;-62
2023/08/08 09:56:42;;;;;;;2.05;1.30;;;21.60;50.20;;;;;;5083559;28;20097;-62
2023/08/08 09:59:08;;;;;;;3.28;1.27;;;21.80;49.50;;;;;;5099502;28;20028;-62
2023/08/08 10:01:34;;;;;;;3.00;1.38;;;22.00;46.90;;;;;;5110609;28;20230;-62
2023/08/08 10:04:02;;;;;;;2.72;1.40;;;22.10;47.00;;;;;;5082652;28;20129;-62
2023/08/08 10:06:28;;;;;;;3.30;1.48;;;21.80;47.50;;;;;;5111794;28;20069;-62
2023/08/08 10:08:54;;;;;;;1.88;1.40;;;21.60;47.50;;;;;;5099214;28;20766;-62
2023/08/08 10:11:22;;;;;;;3.53;1.30;;;21.50;47.90;;;;;;5092383;28;20036;-61
2023/08/08 10:13:52;;;;;;;1.42;1.23;;;21.50;47.30;;;;;;5100338;28;20035;-61
2023/08/08 10:16:19;;;;;;;3.28;1.35;;;21.70;47.10;;;;;;5082074;28;20025;-62
2023/08/08 10:18:59;;;;;;;1.73;1.08;;;21.80;47.10;;;;;;5088306;28;20043;-63
2023/08/08 10:21:25;;;;;;;1.75;1.35;;;21.90;46.70;;;;;;5090136;28;20104;-63
2023/08/08 10:24:08;;;;;;;3.63;1.20;;;22.10;46.80;;;;;;5099804;28;20503;-51
2023/08/08 10:26:34;;;;;;;1.50;1.00;;;22.30;44.90;;;;;;5071147;28;20056;-51
2023/08/08 10:29:01;;;;;;;1.80;1.20;;;22.20;45.70;;;;;;5099347;28;20027;-55
2023/08/08 10:31:27;;;;;;;2.90;1.48;;;22.10;45.60;;;;;;5081896;28;20036;-52
2023/08/08 10:34:07;;;;;;;3.70;1.55;;;21.80;47.20;;;;;;5094090;28;20487;-52
2023/08/08 10:36:52;;;;;;;3.03;1.50;;;21.30;57.10;;;;;;5078293;28;20036;-54
2023/08/08 10:39:18;;;;;;;1.80;1.27;;;20.80;57.40;;;;;;5110794;28;20031;-54
2023/08/08 10:41:50;;;;;;;2.10;1.40;;;20.50;56.50;;;;;;5089578;28;20107;-53
2023/08/08 10:44:23;;;;;;;2.78;1.42;;;20.20;59.20;;;;;;5111412;28;20020;-54
2023/08/08 10:46:50;;;;;;;2.70;1.15;;;20.10;61.30;;;;;;5089745;28;20384;-53
2023/08/08 10:49:17;;;;;;;3.50;1.30;;;20.30;61.40;;;;;;5100109;28;20515;-52
2023/08/08 10:51:46;;;;;;;2.53;1.35;;;20.50;62.20;;;;;;5078361;28;20434;-55
2023/08/08 10:54:14;;;;;;;1.75;1.20;;;20.60;62.70;;;;;;5080884;28;20021;-52
2023/08/08 10:56:41;;;;;;;1.42;1.10;;;20.80;62.00;;;;;;5074341;28;20471;-51
2023/08/08 10:59:18;;;;;;;1.75;1.30;;;21.00;62.10;;;;;;5101370;28;20549;-53
2023/08/08 11:01:49;;;;;;;2.58;1.38;;;21.20;66.20;;;;;;5085533;28;20566;-55
2023/08/08 11:04:15;;;;;;;2.40;1.27;;;21.10;62.60;;;;;;5081585;28;20024;-53
2023/08/08 11:06:41;;;;;;;2.38;1.20;;;21.10;61.10;;;;;;5090076;28;20024;-56
2023/08/08 11:09:07;;;;;;;1.73;1.13;;;21.10;59.40;;;;;;5100535;28;20427;-50
2023/08/08 11:11:42;;;;;;;1.83;1.33;;;21.10;60.00;;;;;;5076423;28;20044;-50
2023/08/08 11:14:10;;;;;;;1.80;1.33;;;21.00;60.30;;;;;;5086741;28;20531;-52
2023/08/08 11:16:36;;;;;;;1.65;1.05;;;21.00;59.50;;;;;;5105957;28;20046;-53
2023/08/08 11:19:02;;;;;;;2.78;1.00;;;20.90;57.10;;;;;;5068371;28;20032;-53
2023/08/08 11:21:28;;;;;;;4.13;1.30;;;20.80;54.50;;;;;;5083371;28;20036;-51
2023/08/08 11:23:53;;;;;;;1.70;1.20;;;20.80;54.00;;;;;;5107208;28;20054;-56
2023/08/08 11:26:19;;;;;;;2.08;1.33;;;20.70;53.90;;;;;;5083826;28;20039;-55
2023/08/08 11:28:51;;;;;;;1.92;1.48;;;20.60;53.70;;;;;;5093233;28;20081;-54
2023/08/08 11:31:20;;;;;;;2.42;1.40;;;20.80;54.00;;;;;;5096935;28;20416;-56
2023/08/08 11:33:47;;;;;;;2.33;1.48;;;21.10;53.20;;;;;;5066339;28;20107;-53
2023/08/08 11:36:14;;;;;;;2.20;1.33;;;21.10;53.20;;;;;;5091188;28;20554;-55
2023/08/08 11:38:41;;;;;;;2.33;1.40;;;21.20;52.70;;;;;;5097145;28;20055;-54
2023/08/08 11:41:07;;;;;;;1.40;1.20;;;21.20;52.50;;;;;;5094504;28;20036;-53
2023/08/08 11:43:33;;;;;;;2.85;1.60;;;21.20;52.70;;;;;;5097928;28;20043;-55
2023/08/08 11:46:01;;;;;;;3.35;1.55;;;21.20;53.40;;;;;;5077453;28;20464;-52
2023/08/08 11:48:27;;;;;;;3.97;1.65;;;21.10;52.60;;;;;;5069575;28;20040;-55
2023/08/08 11:50:53;;;;;;;3.60;1.35;;;21.00;52.80;;;;;;5085313;28;20408;-51
2023/08/08 11:53:20;;;;;;;1.95;1.50;;;21.10;53.20;;;;;;5079870;28;20090;-52
2023/08/08 11:55:46;;;;;;;2.38;1.50;;;21.20;53.00;;;;;;5080257;28;20033;-51
2023/08/08 11:58:14;;;;;;;3.42;1.50;;;21.20;52.00;;;;;;5091014;28;20037;-52
2023/08/08 12:00:42;;;;;;;4.25;1.50;;;21.20;52.20;;;;;;5085215;28;20031;-56
2023/08/08 12:03:09;;;;;;;2.97;1.60;;;21.00;55.40;;;;;;5085140;28;20036;-55
2023/08/08 12:05:40;;;;;;;1.83;1.30;;;20.50;58.10;;;;;;5083383;28;20074;-53
2023/08/08 12:08:06;;;;;;;2.00;1.55;;;20.20;60.60;;;;;;5092810;28;20081;-53
2023/08/08 12:10:32;;;;;;;2.15;1.17;;;19.90;60.30;;;;;;5082828;28;20029;-53
2023/08/08 12:12:59;;;;;;;1.63;1.20;;;19.70;59.30;;;;;;5080914;28;20453;-53
2023/08/08 12:15:32;;;;;;;2.55;1.02;;;19.60;59.80;;;;;;5101352;28;20061;-55
2023/08/08 12:18:02;;;;;;;3.28;1.27;;;19.60;58.90;;;;;;5085252;28;20038;-52
2023/08/08 12:20:29;;;;;;;1.48;0.98;;;19.60;58.20;;;;;;5087136;28;20035;-53
2023/08/08 12:22:55;;;;;;;1.77;1.30;;;19.60;58.50;;;;;;5094919;28;20455;-52
2023/08/08 12:25:20;;;;;;;2.90;1.10;;;19.80;58.50;;;;;;5065067;28;20103;-49
2023/08/08 12:27:46;;;;;;;1.83;1.33;;;20.00;57.60;;;;;;5103627;28;20027;-53
2023/08/08 12:30:11;;;;;;;1.48;0.98;;;20.20;57.50;;;;;;5092364;28;20048;-52
2023/08/08 12:32:37;;;;;;;2.25;1.00;;;20.30;56.10;;;;;;5073056;28;20039;-54
2023/08/08 12:35:03;;;;;;;4.13;1.02;;;20.30;55.30;;;;;;5079042;28;20476;-53
2023/08/08 12:37:29;;;;;;;1.35;0.88;;;20.30;55.30;;;;;;5078200;28;20032;-53
2023/08/08 12:39:54;;;;;;;0.90;0.70;;;20.30;54.60;;;;;;5080711;28;20447;-52
2023/08/08 12:42:20;;;;;;;2.13;1.55;;;20.20;54.50;;;;;;5076493;28;20024;-52